createdAt,value
2018-08-06T00:00:36.995Z,80.01
2018-08-06T00:01:37.056Z,80.79
2018-08-06T00:02:37.099Z,80.88
2018-08-06T00:03:37.177Z,79.72
2018-08-06T00:04:37.513Z,80.11
2018-08-06T00:05:37.258Z,79.52
2018-08-06T00:06:37.312Z,79.43
2018-08-06T00:07:37.364Z,80.11
2018-08-06T00:08:37.418Z,78.36
2018-08-06T00:09:37.470Z,79.24
2018-08-06T00:10:37.557Z,79.43
2018-08-06T00:11:37.580Z,79.43
2018-08-06T00:12:37.651Z,79.62
2018-08-06T00:13:37.686Z,78.94
2018-08-06T00:14:37.762Z,78.94
2018-08-06T00:15:37.790Z,78.27
2018-08-06T00:16:37.843Z,79.52
2018-08-06T00:17:37.896Z,78.94
2018-08-06T00:18:37.948Z,78.66
2018-08-06T00:19:38.037Z,78.85
2018-08-06T00:20:38.063Z,79.24
2018-08-06T00:21:38.109Z,78.56
2018-08-06T00:22:38.164Z,78.94
2018-08-06T00:23:38.212Z,78.75
2018-08-06T00:24:38.293Z,79.43
2018-08-06T00:25:38.342Z,78.75
2018-08-06T00:26:38.382Z,78.75
2018-08-06T00:27:38.428Z,78.75
2018-08-06T00:28:38.481Z,79.33
2018-08-06T00:29:38.557Z,80.11
2018-08-06T00:30:38.610Z,79.52
2018-08-06T00:31:38.638Z,78.94
2018-08-06T00:32:38.689Z,78.85
2018-08-06T00:33:38.745Z,80.01
2018-08-06T00:34:38.798Z,78.46
2018-08-06T00:35:38.875Z,79.43
2018-08-06T00:36:38.900Z,79.62
2018-08-06T00:37:39.683Z,80.20
2018-08-06T00:38:39.011Z,79.52
2018-08-06T00:39:39.060Z,79.52
2018-08-06T00:40:39.135Z,79.82
2018-08-06T00:41:39.167Z,78.85
2018-08-06T00:42:39.218Z,79.68
2018-08-06T00:43:39.273Z,78.94
2018-08-06T00:44:39.326Z,80.69
2018-08-06T00:45:39.408Z,79.78
2018-08-06T00:46:39.431Z,80.07
2018-08-06T00:47:39.490Z,79.58
2018-08-06T00:48:39.536Z,79.97
2018-08-06T00:49:39.588Z,79.87
2018-08-06T00:50:39.668Z,79.87
2018-08-06T00:51:39.697Z,80.55
2018-08-06T00:52:39.747Z,79.68
2018-08-06T00:53:39.803Z,79.39
2018-08-06T00:54:39.854Z,80.36
2018-08-06T00:55:39.931Z,80.65
2018-08-06T00:56:39.984Z,80.07
2018-08-06T00:57:40.020Z,80.55
2018-08-06T00:58:40.065Z,79.97
2018-08-06T00:59:40.119Z,79.87
2018-08-06T01:00:40.170Z,80.74
2018-08-06T01:01:40.251Z,79.97
2018-08-06T01:02:40.279Z,80.84
2018-08-06T01:03:40.328Z,80.07
2018-08-06T01:04:40.382Z,80.16
2018-08-06T01:05:40.435Z,80.07
2018-08-06T01:06:40.522Z,80.74
2018-08-06T01:07:40.545Z,79.78
2018-08-06T01:08:40.593Z,79.78
2018-08-06T01:09:40.644Z,81.13
2018-08-06T01:10:40.702Z,80.74
2018-08-06T01:11:40.791Z,79.49
2018-08-06T01:12:40.804Z,79.87
2018-08-06T01:13:40.858Z,80.46
2018-08-06T01:14:40.909Z,80.94
2018-08-06T01:15:40.973Z,79.45
2018-08-06T01:16:41.043Z,79.35
2018-08-06T01:17:41.094Z,79.06
2018-08-06T01:18:41.121Z,79.20
2018-08-06T01:19:41.172Z,79.35
2018-08-06T01:20:41.233Z,80.71
2018-08-06T01:21:41.304Z,79.25
2018-08-06T01:22:41.362Z,79.45
2018-08-06T01:23:41.386Z,80.71
2018-08-06T01:24:41.442Z,80.90
2018-08-06T01:25:41.494Z,79.83
2018-08-06T01:26:41.542Z,79.64
2018-08-06T01:27:41.619Z,80.71
2018-08-06T01:28:41.647Z,82.35
2018-08-06T01:29:41.700Z,81.67
2018-08-06T01:30:41.751Z,82.45
2018-08-06T01:31:41.807Z,82.15
2018-08-06T01:32:41.891Z,81.48
2018-08-06T01:33:41.913Z,81.19
2018-08-06T01:34:41.964Z,82.73
2018-08-06T01:35:42.018Z,81.29
2018-08-06T01:36:42.070Z,81.29
2018-08-06T01:37:42.151Z,81.63
2018-08-06T01:38:42.175Z,81.44
2018-08-06T01:39:42.229Z,82.60
2018-08-06T01:40:42.280Z,82.31
2018-08-06T01:41:42.332Z,84.33
2018-08-06T01:42:42.408Z,82.69
2018-08-06T01:43:42.441Z,82.69
2018-08-06T01:44:42.492Z,83.85
2018-08-06T01:45:42.578Z,82.98
2018-08-06T01:46:42.597Z,82.98
2018-08-06T01:47:42.686Z,83.27
2018-08-06T01:48:42.700Z,83.27
2018-08-06T01:49:42.758Z,83.37
2018-08-06T01:50:42.809Z,83.75
2018-08-06T01:51:42.862Z,84.05
2018-08-06T01:52:42.942Z,84.05
2018-08-06T01:53:42.965Z,85.78
2018-08-06T01:54:43.017Z,85.40
2018-08-06T01:55:43.070Z,85.98
2018-08-06T01:56:43.123Z,84.43
2018-08-06T01:57:43.226Z,86.75
2018-08-06T01:58:43.227Z,86.22
2018-08-06T01:59:43.289Z,87.29
2018-08-06T02:00:43.333Z,87.38
2018-08-06T02:01:43.386Z,86.80
2018-08-06T02:02:43.464Z,86.42
2018-08-06T02:03:43.489Z,88.15
2018-08-06T02:04:43.544Z,88.83
2018-08-06T02:05:43.594Z,89.41
2018-08-06T02:06:43.647Z,89.31
2018-08-06T02:07:43.722Z,88.73
2018-08-06T02:08:43.751Z,89.51
2018-08-06T02:09:43.826Z,89.41
2018-08-06T02:10:43.856Z,89.89
2018-08-06T02:11:43.909Z,89.17
2018-08-06T02:12:43.984Z,88.79
2018-08-06T02:13:44.717Z,88.69
2018-08-06T02:14:44.091Z,90.33
2018-08-06T02:15:44.118Z,88.69
2018-08-06T02:16:44.169Z,90.14
2018-08-06T02:17:44.227Z,89.75
2018-08-06T02:18:44.276Z,90.43
2018-08-06T02:19:44.351Z,90.05
2018-08-06T02:20:44.389Z,91.30
2018-08-06T02:21:44.435Z,90.14
2018-08-06T02:22:44.491Z,90.43
2018-08-06T02:23:44.570Z,90.43
2018-08-06T02:24:44.591Z,90.72
2018-08-06T02:25:44.640Z,90.72
2018-08-06T02:26:44.695Z,90.05
2018-08-06T02:27:44.745Z,90.05
2018-08-06T02:28:44.836Z,90.09
2018-08-06T02:29:44.850Z,90.53
2018-08-06T02:30:44.904Z,91.68
2018-08-06T02:31:44.955Z,91.30
2018-08-06T02:32:45.012Z,91.30
2018-08-06T02:33:45.092Z,91.11
2018-08-06T02:34:45.113Z,91.25
2018-08-06T02:35:45.187Z,91.25
2018-08-06T02:36:45.222Z,92.02
2018-08-06T02:37:45.268Z,92.99
2018-08-06T02:38:45.322Z,93.76
2018-08-06T02:39:45.397Z,92.99
2018-08-06T02:40:45.428Z,92.22
2018-08-06T02:41:45.477Z,93.37
2018-08-06T02:42:45.535Z,92.80
2018-08-06T02:43:45.583Z,93.28
2018-08-06T02:44:45.659Z,93.37
2018-08-06T02:45:45.687Z,95.01
2018-08-06T02:46:45.745Z,93.18
2018-08-06T02:47:45.796Z,92.99
2018-08-06T02:48:45.841Z,93.85
2018-08-06T02:49:45.925Z,92.89
2018-08-06T02:50:45.947Z,93.85
2018-08-06T02:51:46.002Z,93.76
2018-08-06T02:52:46.052Z,92.99
2018-08-06T02:53:46.103Z,93.37
2018-08-06T02:54:46.186Z,93.71
2018-08-06T02:55:46.209Z,94.39
2018-08-06T02:56:46.258Z,94.10
2018-08-06T02:57:46.310Z,94.48
2018-08-06T02:58:46.366Z,95.16
2018-08-06T02:59:46.440Z,94.78
2018-08-06T03:00:46.469Z,94.68
2018-08-06T03:01:46.519Z,94.87
2018-08-06T03:02:46.599Z,94.58
2018-08-06T03:03:46.624Z,95.36
2018-08-06T03:04:46.676Z,95.06
2018-08-06T03:05:46.726Z,95.36
2018-08-06T03:06:46.782Z,94.96
2018-08-06T03:07:46.856Z,95.06
2018-08-06T03:08:46.882Z,95.26
2018-08-06T03:09:46.936Z,94.68
2018-08-06T03:10:46.988Z,94.29
2018-08-06T03:11:47.068Z,94.58
2018-08-06T03:12:47.117Z,94.96
2018-08-06T03:13:47.142Z,96.22
2018-08-06T03:14:47.200Z,96.32
2018-08-06T03:15:47.248Z,95.54
2018-08-06T03:16:47.299Z,96.32
2018-08-06T03:17:47.374Z,96.32
2018-08-06T03:18:47.439Z,96.03
2018-08-06T03:19:47.454Z,95.36
2018-08-06T03:20:47.508Z,95.45
2018-08-06T03:21:47.558Z,96.51
2018-08-06T03:22:47.643Z,96.51
2018-08-06T03:23:47.673Z,95.50
2018-08-06T03:24:47.725Z,95.06
2018-08-06T03:25:47.778Z,94.96
2018-08-06T03:26:47.828Z,96.70
2018-08-06T03:27:47.899Z,96.17
2018-08-06T03:28:47.922Z,95.98
2018-08-06T03:29:47.977Z,96.89
2018-08-06T03:30:48.026Z,95.93
2018-08-06T03:31:48.079Z,95.89
2018-08-06T03:32:48.151Z,96.46
2018-08-06T03:33:48.182Z,96.46
2018-08-06T03:34:48.235Z,96.66
2018-08-06T03:35:48.287Z,96.85
2018-08-06T03:36:48.338Z,96.08
2018-08-06T03:37:48.418Z,96.75
2018-08-06T03:38:48.442Z,97.52
2018-08-06T03:39:48.494Z,97.42
2018-08-06T03:40:48.546Z,95.79
2018-08-06T03:41:48.599Z,96.85
2018-08-06T03:42:48.678Z,96.85
2018-08-06T03:43:48.699Z,97.04
2018-08-06T03:44:48.750Z,95.59
2018-08-06T03:45:48.803Z,94.54
2018-08-06T03:46:48.855Z,95.02
2018-08-06T03:47:48.946Z,95.21
2018-08-06T03:48:48.959Z,95.59
2018-08-06T03:49:49.010Z,94.54
2018-08-06T03:50:49.062Z,95.02
2018-08-06T03:51:49.113Z,94.06
2018-08-06T03:52:49.204Z,94.06
2018-08-06T03:53:49.222Z,94.63
2018-08-06T03:54:49.270Z,95.16
2018-08-06T03:55:49.320Z,94.58
2018-08-06T03:56:49.372Z,94.58
2018-08-06T03:57:49.455Z,94.82
2018-08-06T03:58:49.476Z,95.31
2018-08-06T03:59:49.527Z,95.31
2018-08-06T04:00:49.580Z,96.46
2018-08-06T04:01:49.631Z,96.70
2018-08-06T04:02:49.706Z,94.92
2018-08-06T04:03:49.735Z,94.96
2018-08-06T04:04:49.788Z,94.82
2018-08-06T04:05:49.868Z,95.50
2018-08-06T04:06:49.892Z,94.87
2018-08-06T04:07:49.942Z,96.17
2018-08-06T04:08:50.020Z,96.85
2018-08-06T04:09:50.044Z,97.52
2018-08-06T04:10:50.100Z,96.99
2018-08-06T04:11:50.149Z,97.42
2018-08-06T04:12:50.201Z,96.89
2018-08-06T04:13:50.281Z,96.51
2018-08-06T04:14:50.305Z,96.17
2018-08-06T04:15:50.377Z,96.17
2018-08-06T04:16:50.409Z,95.02
2018-08-06T04:17:50.460Z,96.08
2018-08-06T04:18:50.512Z,96.08
2018-08-06T04:19:50.563Z,96.03
2018-08-06T04:20:50.641Z,95.69
2018-08-06T04:21:50.667Z,96.56
2018-08-06T04:22:50.725Z,96.46
2018-08-06T04:23:50.772Z,96.66
2018-08-06T04:24:50.856Z,96.17
2018-08-06T04:25:50.876Z,95.02
2018-08-06T04:26:50.928Z,95.98
2018-08-06T04:27:50.981Z,94.58
2018-08-06T04:28:51.029Z,94.92
2018-08-06T04:29:51.111Z,95.02
2018-08-06T04:30:51.136Z,96.03
2018-08-06T04:31:51.187Z,96.85
2018-08-06T04:32:51.269Z,96.94
2018-08-06T04:33:51.295Z,96.70
2018-08-06T04:34:51.379Z,94.58
2018-08-06T04:35:51.393Z,94.87
2018-08-06T04:36:51.442Z,96.03
2018-08-06T04:37:51.495Z,96.03
2018-08-06T04:38:51.547Z,96.80
2018-08-06T04:39:51.633Z,96.80
2018-08-06T04:40:51.650Z,96.80
2018-08-06T04:41:51.725Z,97.57
2018-08-06T04:42:51.753Z,95.45
2018-08-06T04:43:51.805Z,96.22
2018-08-06T04:44:51.859Z,97.67
2018-08-06T04:45:51.912Z,97.96
2018-08-06T04:46:51.984Z,98.44
2018-08-06T04:47:52.014Z,99.99
2018-08-06T04:48:52.070Z,99.50
2018-08-06T04:49:52.119Z,99.88
2018-08-06T04:50:52.177Z,99.02
2018-08-06T04:51:52.245Z,99.99
2018-08-06T04:52:52.274Z,99.99
2018-08-06T04:53:52.324Z,99.40
2018-08-06T04:54:52.377Z,99.98
2018-08-06T04:55:52.452Z,98.63
2018-08-06T04:56:52.504Z,99.60
2018-08-06T04:57:52.531Z,99.99
2018-08-06T04:58:52.583Z,99.99
2018-08-06T04:59:52.639Z,98.82
2018-08-06T05:00:52.720Z,99.40
2018-08-06T05:01:52.739Z,99.79
2018-08-06T05:02:52.794Z,99.88
2018-08-06T05:03:52.844Z,99.99
2018-08-06T05:04:52.895Z,99.99
2018-08-06T05:05:52.969Z,99.88
2018-08-06T05:06:53.007Z,98.44
2018-08-06T05:07:53.076Z,98.82
2018-08-06T05:08:53.103Z,98.82
2018-08-06T05:09:53.154Z,99.02
2018-08-06T05:10:53.205Z,98.25
2018-08-06T05:11:53.327Z,99.99
2018-08-06T05:12:53.309Z,99.88
2018-08-06T05:13:53.364Z,99.99
2018-08-06T05:14:53.415Z,99.55
2018-08-06T05:15:53.466Z,98.68
2018-08-06T05:16:53.550Z,99.30
2018-08-06T05:17:53.577Z,99.99
2018-08-06T05:18:53.623Z,99.99
2018-08-06T05:19:53.673Z,99.99
2018-08-06T05:20:53.725Z,98.87
2018-08-06T05:21:53.822Z,98.20
2018-08-06T05:22:53.828Z,99.84
2018-08-06T05:23:53.885Z,98.29
2018-08-06T05:24:53.987Z,99.93
2018-08-06T05:25:53.986Z,98.87
2018-08-06T05:26:54.062Z,98.29
2018-08-06T05:27:54.089Z,96.84
2018-08-06T05:28:54.165Z,97.33
2018-08-06T05:29:54.195Z,97.04
2018-08-06T05:30:54.246Z,98.39
2018-08-06T05:31:54.300Z,97.81
2018-08-06T05:32:54.380Z,99.07
2018-08-06T05:33:54.405Z,98.87
2018-08-06T05:34:54.457Z,98.87
2018-08-06T05:35:54.505Z,98.97
2018-08-06T05:36:54.560Z,99.07
2018-08-06T05:37:54.635Z,99.07
2018-08-06T05:38:54.686Z,99.93
2018-08-06T05:39:54.774Z,99.35
2018-08-06T05:40:54.766Z,98.87
2018-08-06T05:41:54.817Z,99.65
2018-08-06T05:42:54.869Z,98.39
2018-08-06T05:43:54.960Z,99.35
2018-08-06T05:44:54.974Z,99.99
2018-08-06T05:45:55.026Z,99.16
2018-08-06T05:46:55.080Z,98.63
2018-08-06T05:47:55.137Z,98.54
2018-08-06T05:48:55.218Z,99.11
2018-08-06T05:49:55.238Z,98.92
2018-08-06T05:51:16.315Z,97.96
2018-08-06T05:51:55.343Z,96.41
2018-08-06T05:57:36.471Z,96.70
2018-08-06T05:58:36.496Z,95.16
2018-08-06T05:59:36.580Z,94.29
2018-08-06T06:00:36.605Z,96.61
2018-08-06T06:01:36.655Z,93.56
2018-08-06T06:02:36.719Z,94.24
2018-08-06T06:03:36.761Z,92.69
2018-08-06T06:04:36.847Z,93.27
2018-08-06T06:05:36.865Z,92.79
2018-08-06T06:06:36.917Z,94.43
2018-08-06T06:07:36.972Z,93.61
2018-08-06T06:08:37.023Z,93.32
2018-08-06T06:09:37.100Z,95.45
2018-08-06T06:10:37.149Z,95.45
2018-08-06T06:11:37.177Z,94.09
2018-08-06T06:12:37.231Z,94.38
2018-08-06T06:13:37.285Z,94.09
2018-08-06T06:14:37.367Z,91.00
2018-08-06T06:15:37.412Z,91.67
2018-08-06T06:16:37.447Z,91.97
2018-08-06T06:17:37.494Z,92.49
2018-08-06T06:18:37.545Z,91.72
2018-08-06T06:19:37.599Z,91.05
2018-08-06T06:20:37.680Z,91.82
2018-08-06T06:21:37.707Z,92.49
2018-08-06T06:22:37.755Z,93.66
2018-08-06T06:23:37.810Z,90.08
2018-08-06T06:24:37.860Z,90.95
2018-08-06T06:25:37.960Z,89.98
2018-08-06T06:26:37.965Z,91.19
2018-08-06T06:27:38.019Z,89.06
2018-08-06T06:28:38.128Z,88.67
2018-08-06T06:29:38.127Z,88.48
2018-08-06T06:30:38.199Z,90.32
2018-08-06T06:31:38.257Z,89.54
2018-08-06T06:32:38.288Z,88.57
2018-08-06T06:33:38.343Z,89.20
2018-08-06T06:34:38.454Z,87.65
2018-08-06T06:35:38.442Z,87.17
2018-08-06T06:36:38.522Z,87.36
2018-08-06T06:37:38.552Z,87.07
2018-08-06T06:38:38.601Z,87.65
2018-08-06T06:39:38.654Z,88.13
2018-08-06T06:40:38.707Z,87.70
2018-08-06T06:41:38.795Z,87.07
2018-08-06T06:42:38.841Z,86.49
2018-08-06T06:43:38.869Z,86.54
2018-08-06T06:44:38.921Z,89.25
2018-08-06T06:45:38.978Z,87.50
2018-08-06T06:46:39.028Z,88.67
2018-08-06T06:47:39.106Z,87.79
2018-08-06T06:48:39.135Z,86.82
2018-08-06T06:49:39.211Z,86.58
2018-08-06T06:50:39.241Z,83.09
2018-08-06T06:51:39.300Z,82.75
2018-08-06T06:52:39.371Z,81.37
2018-08-06T06:53:39.402Z,79.51
2018-08-06T06:54:39.455Z,77.99
2018-08-06T06:55:39.510Z,75.45
2018-08-06T06:56:39.563Z,74.41
2018-08-06T06:57:39.645Z,71.27
2018-08-06T06:58:39.673Z,69.84
2018-08-06T06:59:39.725Z,68.80
2018-08-06T07:00:39.780Z,69.23
2018-08-06T07:01:39.834Z,68.29
2018-08-06T07:02:39.922Z,67.02
2018-08-06T07:03:39.947Z,65.95
2018-08-06T07:04:39.998Z,66.27
2018-08-06T07:05:40.056Z,65.49
2018-08-06T07:06:40.107Z,64.22
2018-08-06T07:07:40.201Z,65.39
2018-08-06T07:08:40.220Z,64.45
2018-08-06T07:09:40.274Z,64.36
2018-08-06T07:10:40.328Z,63.67
2018-08-06T07:11:40.387Z,63.38
2018-08-06T07:12:40.467Z,63.44
2018-08-06T07:13:40.551Z,64.51
2018-08-06T07:14:40.551Z,62.70
2018-08-06T07:15:40.605Z,62.11
2018-08-06T07:16:40.662Z,62.89
2018-08-06T07:17:40.718Z,62.99
2018-08-06T07:18:40.798Z,63.28
2018-08-06T07:19:40.830Z,62.89
2018-08-06T07:20:40.887Z,62.89
2018-08-06T07:21:40.941Z,62.82
2018-08-06T07:22:41.000Z,63.31
2018-08-06T07:23:41.089Z,61.58
2018-08-06T07:24:41.111Z,60.60
2018-08-06T07:25:41.168Z,59.92
2018-08-06T07:26:41.230Z,60.14
2018-08-06T07:27:41.278Z,59.75
2018-08-06T07:28:41.377Z,58.70
2018-08-06T07:29:41.396Z,58.97
2018-08-06T07:30:41.449Z,58.87
2018-08-06T07:31:41.508Z,59.59
2018-08-06T07:32:41.563Z,58.51
2018-08-06T07:33:41.726Z,58.25
2018-08-06T07:34:41.685Z,58.90
2018-08-06T07:35:41.734Z,59.27
2018-08-06T07:36:41.792Z,59.95
2018-08-06T07:37:41.848Z,59.00
2018-08-06T07:38:41.928Z,59.39
2018-08-06T07:39:41.966Z,59.39
2018-08-06T07:40:42.044Z,58.73
2018-08-06T07:41:42.075Z,58.34
2018-08-06T07:42:42.133Z,58.51
2018-08-06T07:43:42.190Z,60.21
2018-08-06T07:44:42.247Z,60.05
2018-08-06T07:45:42.328Z,61.25
2018-08-06T07:46:42.363Z,59.92
2018-08-06T07:47:42.418Z,62.01
2018-08-06T07:48:42.483Z,63.67
2018-08-06T07:49:42.549Z,66.63
2018-08-06T07:50:42.614Z,66.08
2018-08-06T07:51:42.651Z,66.08
2018-08-06T07:52:42.707Z,65.95
2018-08-06T07:53:42.771Z,67.50
2018-08-06T07:54:42.818Z,67.67
2018-08-06T07:55:42.903Z,68.64
2018-08-06T07:56:42.935Z,68.35
2018-08-06T07:57:42.991Z,67.93
2018-08-06T07:58:43.047Z,66.86
2018-08-06T07:59:43.112Z,66.93
2018-08-06T08:00:43.203Z,67.60
2018-08-06T08:01:43.220Z,68.58
2018-08-06T08:02:43.280Z,67.77
2018-08-06T08:03:43.329Z,66.14
2018-08-06T08:04:43.393Z,65.59
2018-08-06T08:05:43.473Z,66.50
2018-08-06T08:06:43.501Z,64.12
2018-08-06T08:07:43.555Z,64.45
2018-08-06T08:08:43.614Z,65.63
2018-08-06T08:09:43.673Z,67.57
2018-08-06T08:10:43.758Z,70.23
2018-08-06T08:11:43.782Z,70.26
2018-08-06T08:12:43.868Z,70.86
2018-08-06T08:13:43.896Z,67.90
2018-08-06T08:14:43.951Z,69.48
2018-08-06T08:15:44.048Z,68.64
2018-08-06T08:16:44.066Z,69.03
2018-08-06T08:17:44.120Z,68.74
2018-08-06T08:18:44.178Z,70.50
2018-08-06T08:19:44.302Z,70.50
2018-08-06T08:20:44.319Z,70.30
2018-08-06T08:21:44.370Z,70.23
2018-08-06T08:22:44.408Z,70.40
2018-08-06T08:23:44.458Z,68.68
2018-08-06T08:24:44.515Z,68.35
2018-08-06T08:25:44.573Z,65.49
2018-08-06T08:26:44.668Z,65.63
2018-08-06T08:27:44.683Z,64.29
2018-08-06T08:28:44.744Z,64.19
2018-08-06T08:29:44.795Z,63.80
2018-08-06T08:30:44.854Z,62.82
2018-08-06T08:31:44.959Z,64.03
2018-08-06T08:32:44.965Z,64.94
2018-08-06T08:33:45.021Z,68.06
2018-08-06T08:34:45.080Z,66.50
2018-08-06T08:35:45.141Z,70.40
2018-08-06T08:36:45.315Z,70.98
2018-08-06T08:37:45.254Z,70.14
2018-08-06T08:38:45.308Z,69.65
2018-08-06T08:39:45.617Z,71.78
2018-08-06T08:40:45.431Z,72.70
2018-08-06T08:41:45.517Z,71.76
2018-08-06T08:42:45.532Z,71.15
2018-08-06T08:43:45.589Z,70.53
2018-08-06T08:44:45.646Z,69.65
2018-08-06T08:45:45.709Z,70.82
2018-08-06T08:46:45.798Z,71.53
2018-08-06T08:47:45.817Z,72.56
2018-08-06T08:48:45.876Z,74.67
2018-08-06T08:49:45.932Z,73.93
2018-08-06T08:50:45.988Z,73.28
2018-08-06T08:51:46.072Z,71.60
2018-08-06T08:52:46.108Z,71.60
2018-08-06T08:53:46.159Z,71.33
2018-08-06T08:54:46.234Z,71.95
2018-08-06T08:55:46.272Z,73.51
2018-08-06T08:56:46.327Z,74.08
2018-08-06T08:57:46.406Z,75.84
2018-08-06T08:58:46.521Z,76.51
2018-08-06T08:59:46.518Z,75.35
2018-08-06T09:00:46.585Z,74.76
2018-08-06T09:01:46.610Z,75.70
2018-08-06T09:02:46.666Z,75.93
2018-08-06T09:03:46.720Z,76.61
2018-08-06T09:04:46.775Z,76.51
2018-08-06T09:05:46.865Z,75.93
2018-08-06T09:06:46.890Z,76.09
2018-08-06T09:07:46.947Z,76.51
2018-08-06T09:08:47.027Z,75.09
2018-08-06T09:09:47.058Z,75.25
2018-08-06T09:10:47.142Z,75.35
2018-08-06T09:11:47.169Z,76.26
2018-08-06T09:12:47.234Z,76.61
2018-08-06T09:13:47.304Z,75.78
2018-08-06T09:14:47.337Z,75.09
2018-08-06T09:15:47.392Z,75.93
2018-08-06T09:16:47.451Z,76.45
2018-08-06T09:17:47.505Z,77.04
2018-08-06T09:18:47.584Z,75.97
2018-08-06T09:19:47.620Z,75.68
2018-08-06T09:20:47.672Z,76.98
2018-08-06T09:21:47.729Z,77.47
2018-08-06T09:22:47.785Z,75.20
2018-08-06T09:23:47.867Z,72.57
2018-08-06T09:24:47.896Z,73.51
2018-08-06T09:25:47.976Z,73.80
2018-08-06T09:26:48.061Z,74.39
2018-08-06T09:27:48.067Z,74.23
2018-08-06T09:28:48.122Z,72.02
2018-08-06T09:29:48.177Z,73.16
2018-08-06T09:30:48.265Z,74.97
2018-08-06T09:31:48.293Z,75.82
2018-08-06T09:32:48.373Z,73.13
2018-08-06T09:33:48.409Z,71.77
2018-08-06T09:34:48.463Z,71.92
2018-08-06T09:35:48.556Z,71.05
2018-08-06T09:36:48.577Z,72.02
2018-08-06T09:37:48.635Z,71.15
2018-08-06T09:38:48.688Z,71.02
2018-08-06T09:39:48.743Z,69.53
2018-08-06T09:40:48.844Z,70.34
2018-08-06T09:41:48.861Z,71.18
2018-08-06T09:42:48.922Z,71.83
2018-08-06T09:43:48.974Z,71.80
2018-08-06T09:44:49.041Z,73.51
2018-08-06T09:45:49.110Z,73.94
2018-08-06T09:46:49.143Z,72.34
2018-08-06T09:47:49.202Z,74.10
2018-08-06T09:48:49.262Z,73.77
2018-08-06T09:49:49.316Z,75.42
2018-08-06T09:50:49.420Z,75.81
2018-08-06T09:51:49.431Z,76.55
2018-08-06T09:52:49.487Z,77.37
2018-08-06T09:53:49.548Z,75.09
2018-08-06T09:54:49.600Z,78.59
2018-08-06T09:55:49.685Z,78.44
2018-08-06T09:56:49.717Z,76.30
2018-08-06T09:57:49.802Z,76.30
2018-08-06T09:58:49.830Z,76.18
2018-08-06T09:59:49.891Z,75.92
2018-08-06T10:00:49.945Z,74.44
2018-08-06T10:01:50.007Z,73.56
2018-08-06T10:02:50.080Z,70.57
2018-08-06T10:03:50.123Z,73.54
2018-08-06T10:04:50.171Z,70.18
2018-08-06T10:05:50.363Z,70.53
2018-08-06T10:06:50.291Z,72.31
2018-08-06T10:07:50.378Z,73.25
2018-08-06T10:08:50.403Z,74.04
2018-08-06T10:09:50.465Z,75.46
2018-08-06T10:10:50.517Z,75.24
2018-08-06T10:11:50.603Z,75.95
2018-08-06T10:12:50.672Z,75.75
2018-08-06T10:13:50.690Z,76.20
2018-08-06T10:14:50.749Z,75.52
2018-08-06T10:15:50.816Z,76.50
2018-08-06T10:16:50.862Z,75.56
2018-08-06T10:17:50.945Z,77.17
2018-08-06T10:18:51.060Z,76.30
2018-08-06T10:19:51.037Z,76.04
2018-08-06T10:20:51.089Z,75.65
2018-08-06T10:21:51.154Z,75.14
2018-08-06T10:22:51.204Z,73.58
2018-08-06T10:23:51.301Z,73.13
2018-08-06T10:27:32.022Z,67.80
2018-08-06T10:28:32.091Z,68.55
2018-08-06T10:29:32.213Z,68.71
2018-08-06T10:30:32.259Z,70.34
2018-08-06T10:31:32.225Z,71.70
2018-08-06T10:32:32.282Z,71.02
2018-08-06T10:33:32.340Z,71.44
2018-08-06T10:34:32.422Z,73.32
2018-08-06T10:35:32.455Z,74.04
2018-08-06T10:36:32.526Z,74.29
2018-08-06T10:37:32.575Z,75.16
2018-08-06T10:38:32.631Z,74.49
2018-08-06T10:39:32.711Z,75.46
2018-08-06T10:40:43.674Z,75.26
2018-08-06T10:41:53.832Z,75.20
2018-08-06T10:42:32.860Z,73.25
2018-08-06T10:43:32.923Z,73.58
2018-08-06T10:44:32.977Z,72.31
2018-08-06T10:45:33.056Z,71.67
2018-08-06T10:46:33.091Z,73.11
2018-08-06T10:47:33.147Z,69.82
2018-08-06T10:48:33.285Z,69.89
2018-08-06T10:49:33.265Z,71.22
2018-08-06T10:50:33.348Z,70.63
2018-08-06T10:51:33.378Z,70.63
2018-08-06T10:54:09.710Z,69.82
2018-08-06T10:59:20.739Z,70.92
2018-08-06T11:00:20.779Z,71.41
2018-08-06T11:01:20.854Z,70.53
2018-08-06T11:02:20.884Z,71.08
2018-08-06T11:03:20.943Z,72.74
2018-08-06T11:04:21.002Z,72.35
2018-08-06T11:05:21.086Z,72.80
2018-08-06T11:06:21.122Z,74.04
2018-08-06T11:07:21.176Z,74.50
2018-08-06T11:08:21.243Z,73.33
2018-08-06T11:09:21.291Z,73.17
2018-08-06T11:10:21.396Z,71.45
2018-08-06T11:11:21.408Z,69.27
2018-08-06T11:12:21.465Z,68.95
2018-08-06T11:13:21.524Z,65.20
2018-08-06T11:14:21.646Z,66.17
2018-08-06T11:15:21.665Z,65.53
2018-08-06T11:16:21.702Z,66.14
2018-08-06T11:17:21.757Z,66.31
2018-08-06T11:18:21.818Z,68.78
2018-08-06T11:19:21.876Z,65.98
2018-08-06T11:20:21.979Z,65.59
2018-08-06T11:21:21.993Z,65.16
2018-08-06T11:22:22.052Z,65.20
2018-08-06T11:23:22.111Z,61.57
2018-08-06T11:24:22.169Z,62.52
2018-08-06T11:25:22.258Z,63.11
2018-08-06T11:26:22.286Z,63.40
2018-08-06T11:27:22.344Z,63.79
2018-08-06T11:28:23.490Z,64.68
2018-08-06T11:29:24.940Z,64.84
2018-08-06T11:30:22.525Z,66.31
2018-08-06T11:31:22.584Z,66.70
2018-08-06T11:32:22.642Z,66.21
2018-08-06T11:33:22.726Z,67.51
2018-08-06T11:34:22.770Z,70.02
2018-08-06T11:35:22.819Z,64.77
2018-08-06T11:36:22.879Z,62.35
2018-08-06T11:37:22.940Z,62.26
2018-08-06T11:38:23.023Z,61.11
2018-08-06T11:39:23.058Z,62.19
2018-08-06T11:40:23.120Z,61.99
2018-08-06T11:41:23.179Z,62.65
2018-08-06T11:42:23.236Z,63.04
2018-08-06T11:43:23.322Z,63.89
2018-08-06T11:44:23.364Z,64.11
2018-08-06T11:45:23.418Z,62.91
2018-08-06T11:46:23.479Z,64.12
2018-08-06T11:47:23.539Z,64.77
2018-08-06T11:48:23.629Z,65.49
2018-08-06T11:49:23.682Z,66.73
2018-08-06T11:50:23.730Z,66.63
2018-08-06T11:51:23.781Z,66.41
2018-08-06T11:52:23.838Z,66.56
2018-08-06T11:53:23.922Z,64.45
2018-08-06T11:54:23.984Z,61.22
2018-08-06T11:55:24.038Z,62.92
2018-08-06T11:56:24.148Z,62.72
2018-08-06T11:57:24.146Z,63.57
2018-08-06T11:58:24.205Z,64.48
2018-08-06T11:59:24.296Z,61.51
2018-08-06T12:00:24.320Z,60.85
2018-08-06T12:01:24.384Z,60.29
2018-08-06T12:02:24.447Z,61.82
2018-08-06T12:03:24.505Z,59.20
2018-08-06T12:04:24.597Z,56.09
2018-08-06T12:05:24.624Z,55.00
2018-08-06T12:06:24.685Z,55.69
2018-08-06T12:07:24.741Z,54.61
2018-08-06T12:08:24.813Z,54.41
2018-08-06T12:09:24.888Z,54.58
2018-08-06T12:10:24.956Z,54.58
2018-08-06T12:11:25.040Z,54.88
2018-08-06T12:12:25.051Z,55.10
2018-08-06T12:13:25.114Z,56.11
2018-08-06T12:14:25.172Z,56.53
2018-08-06T12:15:25.256Z,53.98
2018-08-06T12:16:25.299Z,55.48
2018-08-06T12:17:25.367Z,53.41
2018-08-06T12:18:25.426Z,53.06
2018-08-06T12:19:25.484Z,54.93
2018-08-06T12:20:25.579Z,55.82
2018-08-06T12:21:25.633Z,54.46
2018-08-06T12:22:25.669Z,55.74
2018-08-06T12:23:25.731Z,56.76
2018-08-06T12:24:25.796Z,56.37
2018-08-06T12:25:25.885Z,56.62
2018-08-06T12:26:25.960Z,56.03
2018-08-06T12:27:25.982Z,56.42
2018-08-06T12:28:26.046Z,54.75
2018-08-06T12:29:26.109Z,55.81
2018-08-06T12:30:26.218Z,56.76
2018-08-06T12:31:26.243Z,57.81
2018-08-06T12:32:26.297Z,58.40
2018-08-06T12:33:26.359Z,58.50
2018-08-06T12:34:26.423Z,57.03
2018-08-06T12:35:26.506Z,58.07
2018-08-06T12:36:26.554Z,57.81
2018-08-06T12:37:26.608Z,58.20
2018-08-06T12:38:26.675Z,59.01
2018-08-06T12:39:26.730Z,57.57
2018-08-06T12:40:26.818Z,56.65
2018-08-06T12:41:26.857Z,54.78
2018-08-06T12:42:26.919Z,55.79
2018-08-06T12:43:26.981Z,55.03
2018-08-06T12:44:27.045Z,55.94
2018-08-06T12:45:27.135Z,52.92
2018-08-06T12:46:27.194Z,52.33
2018-08-06T12:47:27.246Z,52.23
2018-08-06T12:48:27.292Z,54.13
2018-08-06T12:49:27.357Z,50.29
2018-08-06T12:50:27.419Z,52.09
2018-08-06T12:51:27.510Z,52.03
2018-08-06T12:52:28.506Z,55.13
2018-08-06T12:53:27.611Z,55.13
2018-08-06T12:54:27.674Z,54.89
2018-08-06T12:55:27.736Z,52.23
2018-08-06T12:56:27.830Z,53.66
2018-08-06T12:57:27.863Z,51.81
2018-08-06T12:58:27.928Z,53.71
2018-08-06T12:59:28.002Z,44.06
2018-08-06T13:00:28.055Z,44.55
2018-08-06T13:01:28.163Z,48.69
2018-08-06T13:02:28.184Z,48.96
2018-08-06T13:03:28.252Z,51.76
2018-08-06T13:04:28.315Z,53.66
2018-08-06T13:05:28.383Z,52.68
2018-08-06T13:06:28.477Z,54.96